sensor_id;sensor_type;location;lat;lon;timestamp;P1;durP1;ratioP1;P2;durP2;ratioP2
35324;SDS011;35135;47.510;19.036;2023-03-02T00:00:30;9.50;;;8.50;;
35324;SDS011;35135;47.510;19.036;2023-03-02T00:02:57;9.65;;;8.65;;
35324;SDS011;35135;47.510;19.036;2023-03-02T00:05:23;8.68;;;7.88;;
35324;SDS011;35135;47.510;19.036;2023-03-02T00:07:49;8.63;;;7.82;;
35324;SDS011;35135;47.510;19.036;2023-03-02T00:10:14;8.85;;;7.97;;
35324;SDS011;35135;47.510;19.036;2023-03-02T00:12:40;8.18;;;7.38;;
35324;SDS011;35135;47.510;19.036;2023-03-02T00:15:06;8.65;;;7.85;;
35324;SDS011;35135;47.510;19.036;2023-03-02T00:17:33;9.73;;;8.75;;
35324;SDS011;35135;47.510;19.036;2023-03-02T00:19:58;8.20;;;7.40;;
35324;SDS011;35135;47.510;19.036;2023-03-02T00:22:40;8.75;;;7.82;;
35324;SDS011;35135;47.510;19.036;2023-03-02T00:25:08;8.48;;;7.63;;
35324;SDS011;35135;47.510;19.036;2023-03-02T00:27:34;9.05;;;7.47;;
35324;SDS011;35135;47.510;19.036;2023-03-02T00:30:00;8.80;;;7.90;;
35324;SDS011;35135;47.510;19.036;2023-03-02T00:32:26;8.98;;;7.75;;
35324;SDS011;35135;47.510;19.036;2023-03-02T00:34:52;8.48;;;7.68;;
35324;SDS011;35135;47.510;19.036;2023-03-02T00:37:17;9.10;;;7.78;;
35324;SDS011;35135;47.510;19.036;2023-03-02T00:39:43;8.95;;;7.40;;
35324;SDS011;35135;47.510;19.036;2023-03-02T00:42:09;8.75;;;7.85;;
35324;SDS011;35135;47.510;19.036;2023-03-02T00:44:34;7.68;;;6.90;;
35324;SDS011;35135;47.510;19.036;2023-03-02T00:47:00;8.18;;;7.43;;
35324;SDS011;35135;47.510;19.036;2023-03-02T00:49:26;8.48;;;7.57;;
35324;SDS011;35135;47.510;19.036;2023-03-02T00:51:52;7.57;;;6.88;;
35324;SDS011;35135;47.510;19.036;2023-03-02T00:54:18;8.70;;;7.70;;
35324;SDS011;35135;47.510;19.036;2023-03-02T00:56:43;7.45;;;6.65;;
35324;SDS011;35135;47.510;19.036;2023-03-02T00:59:10;8.80;;;7.90;;
35324;SDS011;35135;47.510;19.036;2023-03-02T01:01:53;8.25;;;7.45;;
35324;SDS011;35135;47.510;19.036;2023-03-02T01:06:59;8.48;;;7.57;;
35324;SDS011;35135;47.510;19.036;2023-03-02T01:09:28;7.50;;;6.68;;
35324;SDS011;35135;47.510;19.036;2023-03-02T01:11:54;7.95;;;7.15;;
35324;SDS011;35135;47.510;19.036;2023-03-02T01:14:20;7.80;;;7.10;;
35324;SDS011;35135;47.510;19.036;2023-03-02T01:16:45;8.05;;;7.28;;
35324;SDS011;35135;47.510;19.036;2023-03-02T01:19:14;8.35;;;7.50;;
35324;SDS011;35135;47.510;19.036;2023-03-02T01:21:40;8.27;;;7.47;;
35324;SDS011;35135;47.510;19.036;2023-03-02T01:24:06;7.55;;;6.85;;
35324;SDS011;35135;47.510;19.036;2023-03-02T01:26:33;7.90;;;7.10;;
35324;SDS011;35135;47.510;19.036;2023-03-02T01:28:59;7.15;;;6.45;;
35324;SDS011;35135;47.510;19.036;2023-03-02T01:31:25;7.53;;;6.70;;
35324;SDS011;35135;47.510;19.036;2023-03-02T01:33:52;7.43;;;6.72;;
35324;SDS011;35135;47.510;19.036;2023-03-02T01:36:17;7.65;;;6.95;;
35324;SDS011;35135;47.510;19.036;2023-03-02T01:38:43;7.65;;;6.95;;
35324;SDS011;35135;47.510;19.036;2023-03-02T01:41:09;7.18;;;6.47;;
35324;SDS011;35135;47.510;19.036;2023-03-02T01:43:35;7.43;;;6.72;;
35324;SDS011;35135;47.510;19.036;2023-03-02T01:51:09;7.43;;;6.72;;
35324;SDS011;35135;47.510;19.036;2023-03-02T01:53:40;7.15;;;6.53;;
35324;SDS011;35135;47.510;19.036;2023-03-02T01:56:15;7.40;;;6.70;;
35324;SDS011;35135;47.510;19.036;2023-03-02T01:58:43;7.40;;;6.70;;
35324;SDS011;35135;47.510;19.036;2023-03-02T02:01:10;7.50;;;6.80;;
35324;SDS011;35135;47.510;19.036;2023-03-02T02:03:40;7.75;;;6.70;;
35324;SDS011;35135;47.510;19.036;2023-03-02T02:06:29;7.38;;;6.68;;
35324;SDS011;35135;47.510;19.036;2023-03-02T02:08:58;7.47;;;6.75;;
35324;SDS011;35135;47.510;19.036;2023-03-02T02:11:26;7.72;;;6.93;;
35324;SDS011;35135;47.510;19.036;2023-03-02T02:13:52;7.40;;;6.70;;
35324;SDS011;35135;47.510;19.036;2023-03-02T02:16:27;7.35;;;6.60;;
35324;SDS011;35135;47.510;19.036;2023-03-02T02:18:55;7.40;;;6.70;;
35324;SDS011;35135;47.510;19.036;2023-03-02T02:21:21;7.55;;;6.80;;
35324;SDS011;35135;47.510;19.036;2023-03-02T02:26:45;7.07;;;6.38;;
35324;SDS011;35135;47.510;19.036;2023-03-02T02:29:26;7.60;;;6.90;;
35324;SDS011;35135;47.510;19.036;2023-03-02T02:32:01;7.28;;;6.57;;
35324;SDS011;35135;47.510;19.036;2023-03-02T02:34:34;7.85;;;7.15;;
35324;SDS011;35135;47.510;19.036;2023-03-02T02:37:06;7.50;;;6.70;;
35324;SDS011;35135;47.510;19.036;2023-03-02T02:39:39;7.53;;;6.72;;
35324;SDS011;35135;47.510;19.036;2023-03-02T02:42:11;7.67;;;6.93;;
35324;SDS011;35135;47.510;19.036;2023-03-02T02:44:43;7.95;;;7.15;;
35324;SDS011;35135;47.510;19.036;2023-03-02T02:47:16;7.80;;;7.00;;
35324;SDS011;35135;47.510;19.036;2023-03-02T02:49:43;8.50;;;7.60;;
35324;SDS011;35135;47.510;19.036;2023-03-02T02:52:13;7.50;;;6.80;;
35324;SDS011;35135;47.510;19.036;2023-03-02T02:54:42;8.20;;;7.40;;
35324;SDS011;35135;47.510;19.036;2023-03-02T02:57:11;8.05;;;7.25;;
35324;SDS011;35135;47.510;19.036;2023-03-02T02:59:40;7.72;;;6.90;;
35324;SDS011;35135;47.510;19.036;2023-03-02T03:02:14;8.05;;;7.25;;
35324;SDS011;35135;47.510;19.036;2023-03-02T03:04:43;7.63;;;6.85;;
35324;SDS011;35135;47.510;19.036;2023-03-02T03:07:09;7.55;;;6.85;;
35324;SDS011;35135;47.510;19.036;2023-03-02T03:09:41;7.35;;;6.65;;
35324;SDS011;35135;47.510;19.036;2023-03-02T03:12:12;7.80;;;7.00;;
35324;SDS011;35135;47.510;19.036;2023-03-02T03:14:45;8.65;;;7.07;;
35324;SDS011;35135;47.510;19.036;2023-03-02T03:17:12;7.47;;;6.78;;
35324;SDS011;35135;47.510;19.036;2023-03-02T03:19:39;7.15;;;6.45;;
35324;SDS011;35135;47.510;19.036;2023-03-02T03:22:06;7.22;;;6.53;;
35324;SDS011;35135;47.510;19.036;2023-03-02T03:24:35;7.85;;;7.05;;
35324;SDS011;35135;47.510;19.036;2023-03-02T03:27:02;7.78;;;6.97;;
35324;SDS011;35135;47.510;19.036;2023-03-02T03:29:29;8.32;;;7.53;;
35324;SDS011;35135;47.510;19.036;2023-03-02T03:31:56;7.47;;;6.68;;
35324;SDS011;35135;47.510;19.036;2023-03-02T03:34:24;7.72;;;6.97;;
35324;SDS011;35135;47.510;19.036;2023-03-02T03:36:50;7.43;;;6.72;;
35324;SDS011;35135;47.510;19.036;2023-03-02T03:39:17;7.55;;;6.78;;
35324;SDS011;35135;47.510;19.036;2023-03-02T03:41:43;7.32;;;6.63;;
35324;SDS011;35135;47.510;19.036;2023-03-02T03:44:09;7.75;;;7.03;;
35324;SDS011;35135;47.510;19.036;2023-03-02T03:46:35;7.50;;;6.80;;
35324;SDS011;35135;47.510;19.036;2023-03-02T03:49:01;7.32;;;6.60;;
35324;SDS011;35135;47.510;19.036;2023-03-02T03:51:27;7.82;;;7.13;;
35324;SDS011;35135;47.510;19.036;2023-03-02T03:53:54;7.47;;;6.78;;
35324;SDS011;35135;47.510;19.036;2023-03-02T03:56:29;7.53;;;6.53;;
35324;SDS011;35135;47.510;19.036;2023-03-02T03:58:57;7.82;;;7.10;;
35324;SDS011;35135;47.510;19.036;2023-03-02T04:03:59;7.07;;;6.38;;
35324;SDS011;35135;47.510;19.036;2023-03-02T04:06:25;7.20;;;6.50;;
35324;SDS011;35135;47.510;19.036;2023-03-02T04:08:51;7.78;;;6.97;;
35324;SDS011;35135;47.510;19.036;2023-03-02T04:11:17;7.60;;;6.78;;
35324;SDS011;35135;47.510;19.036;2023-03-02T04:13:42;8.25;;;7.07;;
35324;SDS011;35135;47.510;19.036;2023-03-02T04:16:08;7.38;;;6.65;;
35324;SDS011;35135;47.510;19.036;2023-03-02T04:18:34;7.28;;;6.57;;
35324;SDS011;35135;47.510;19.036;2023-03-02T04:20:59;7.97;;;7.18;;
35324;SDS011;35135;47.510;19.036;2023-03-02T04:23:25;7.60;;;6.80;;
35324;SDS011;35135;47.510;19.036;2023-03-02T04:25:50;7.43;;;6.72;;
35324;SDS011;35135;47.510;19.036;2023-03-02T04:28:16;8.15;;;7.28;;
35324;SDS011;35135;47.510;19.036;2023-03-02T04:30:42;7.55;;;6.75;;
35324;SDS011;35135;47.510;19.036;2023-03-02T04:33:07;7.95;;;7.15;;
35324;SDS011;35135;47.510;19.036;2023-03-02T04:35:33;7.80;;;6.85;;
35324;SDS011;35135;47.510;19.036;2023-03-02T04:37:59;7.57;;;6.88;;
35324;SDS011;35135;47.510;19.036;2023-03-02T04:40:25;7.35;;;6.65;;
35324;SDS011;35135;47.510;19.036;2023-03-02T04:42:50;7.85;;;7.15;;
35324;SDS011;35135;47.510;19.036;2023-03-02T04:45:16;6.85;;;6.15;;
35324;SDS011;35135;47.510;19.036;2023-03-02T04:47:42;7.57;;;6.78;;
35324;SDS011;35135;47.510;19.036;2023-03-02T04:50:09;7.80;;;7.00;;
35324;SDS011;35135;47.510;19.036;2023-03-02T04:52:36;7.43;;;6.72;;
35324;SDS011;35135;47.510;19.036;2023-03-02T04:55:02;7.05;;;6.35;;
35324;SDS011;35135;47.510;19.036;2023-03-02T04:57:28;6.85;;;6.15;;
35324;SDS011;35135;47.510;19.036;2023-03-02T04:59:54;7.40;;;6.65;;
35324;SDS011;35135;47.510;19.036;2023-03-02T05:02:19;6.93;;;6.22;;
35324;SDS011;35135;47.510;19.036;2023-03-02T05:04:45;6.80;;;6.10;;
35324;SDS011;35135;47.510;19.036;2023-03-02T05:07:10;7.30;;;6.60;;
35324;SDS011;35135;47.510;19.036;2023-03-02T05:09:36;7.72;;;6.93;;
35324;SDS011;35135;47.510;19.036;2023-03-02T05:12:02;7.40;;;6.70;;
35324;SDS011;35135;47.510;19.036;2023-03-02T05:14:28;6.88;;;6.18;;
35324;SDS011;35135;47.510;19.036;2023-03-02T05:16:54;7.05;;;6.35;;
35324;SDS011;35135;47.510;19.036;2023-03-02T05:19:20;6.90;;;6.20;;
35324;SDS011;35135;47.510;19.036;2023-03-02T05:21:46;6.50;;;5.90;;
35324;SDS011;35135;47.510;19.036;2023-03-02T05:24:12;6.97;;;6.10;;
35324;SDS011;35135;47.510;19.036;2023-03-02T05:26:38;7.07;;;6.38;;
35324;SDS011;35135;47.510;19.036;2023-03-02T05:29:04;6.72;;;6.03;;
35324;SDS011;35135;47.510;19.036;2023-03-02T05:31:37;6.82;;;6.00;;
35324;SDS011;35135;47.510;19.036;2023-03-02T05:34:05;6.38;;;5.75;;
35324;SDS011;35135;47.510;19.036;2023-03-02T05:36:33;6.22;;;5.45;;
35324;SDS011;35135;47.510;19.036;2023-03-02T05:38:59;6.35;;;5.75;;
35324;SDS011;35135;47.510;19.036;2023-03-02T05:41:25;6.82;;;6.15;;
35324;SDS011;35135;47.510;19.036;2023-03-02T05:43:51;6.43;;;5.82;;
35324;SDS011;35135;47.510;19.036;2023-03-02T05:46:17;6.22;;;5.63;;
35324;SDS011;35135;47.510;19.036;2023-03-02T05:48:43;5.97;;;5.40;;
35324;SDS011;35135;47.510;19.036;2023-03-02T05:51:09;6.82;;;6.15;;
35324;SDS011;35135;47.510;19.036;2023-03-02T05:53:35;6.78;;;6.10;;
35324;SDS011;35135;47.510;19.036;2023-03-02T05:56:00;8.00;;;6.03;;
35324;SDS011;35135;47.510;19.036;2023-03-02T05:58:27;6.90;;;6.25;;
35324;SDS011;35135;47.510;19.036;2023-03-02T06:00:53;6.60;;;5.90;;
35324;SDS011;35135;47.510;19.036;2023-03-02T06:03:19;7.13;;;6.40;;
35324;SDS011;35135;47.510;19.036;2023-03-02T06:05:45;6.53;;;5.82;;
35324;SDS011;35135;47.510;19.036;2023-03-02T06:08:16;7.22;;;6.53;;
35324;SDS011;35135;47.510;19.036;2023-03-02T06:10:43;6.07;;;5.47;;
35324;SDS011;35135;47.510;19.036;2023-03-02T06:13:09;5.90;;;5.38;;
35324;SDS011;35135;47.510;19.036;2023-03-02T06:15:37;6.75;;;6.00;;
35324;SDS011;35135;47.510;19.036;2023-03-02T06:18:04;6.70;;;6.00;;
35324;SDS011;35135;47.510;19.036;2023-03-02T06:20:30;6.82;;;5.43;;
35324;SDS011;35135;47.510;19.036;2023-03-02T06:22:56;7.65;;;6.07;;
35324;SDS011;35135;47.510;19.036;2023-03-02T06:25:22;9.65;;;6.00;;
35324;SDS011;35135;47.510;19.036;2023-03-02T06:27:49;9.02;;;5.70;;
35324;SDS011;35135;47.510;19.036;2023-03-02T06:30:22;8.93;;;5.88;;
35324;SDS011;35135;47.510;19.036;2023-03-02T06:32:49;9.40;;;6.00;;
35324;SDS011;35135;47.510;19.036;2023-03-02T06:35:15;8.40;;;5.78;;
35324;SDS011;35135;47.510;19.036;2023-03-02T06:37:41;9.65;;;6.22;;
35324;SDS011;35135;47.510;19.036;2023-03-02T06:40:07;12.15;;;6.63;;
35324;SDS011;35135;47.510;19.036;2023-03-02T06:42:36;10.32;;;6.18;;
35324;SDS011;35135;47.510;19.036;2023-03-02T06:45:02;12.30;;;6.70;;
35324;SDS011;35135;47.510;19.036;2023-03-02T06:47:29;9.15;;;5.65;;
35324;SDS011;35135;47.510;19.036;2023-03-02T06:49:55;11.45;;;6.45;;
35324;SDS011;35135;47.510;19.036;2023-03-02T06:52:21;12.05;;;7.05;;
35324;SDS011;35135;47.510;19.036;2023-03-02T06:54:46;10.70;;;7.13;;
35324;SDS011;35135;47.510;19.036;2023-03-02T06:57:12;9.07;;;6.32;;
35324;SDS011;35135;47.510;19.036;2023-03-02T06:59:38;13.80;;;7.00;;
35324;SDS011;35135;47.510;19.036;2023-03-02T07:02:03;9.65;;;6.22;;
35324;SDS011;35135;47.510;19.036;2023-03-02T07:04:29;9.50;;;6.38;;
35324;SDS011;35135;47.510;19.036;2023-03-02T07:06:55;10.82;;;7.25;;
35324;SDS011;35135;47.510;19.036;2023-03-02T07:09:21;9.70;;;6.25;;
35324;SDS011;35135;47.510;19.036;2023-03-02T07:11:47;10.70;;;6.85;;
35324;SDS011;35135;47.510;19.036;2023-03-02T07:14:13;12.00;;;7.03;;
35324;SDS011;35135;47.510;19.036;2023-03-02T07:16:39;10.18;;;6.55;;
35324;SDS011;35135;47.510;19.036;2023-03-02T07:19:04;8.93;;;6.63;;
35324;SDS011;35135;47.510;19.036;2023-03-02T07:21:30;9.95;;;7.40;;
35324;SDS011;35135;47.510;19.036;2023-03-02T07:23:56;11.20;;;6.65;;
35324;SDS011;35135;47.510;19.036;2023-03-02T07:26:21;9.80;;;6.30;;
35324;SDS011;35135;47.510;19.036;2023-03-02T07:28:47;9.90;;;7.00;;
35324;SDS011;35135;47.510;19.036;2023-03-02T07:31:12;8.30;;;6.85;;
35324;SDS011;35135;47.510;19.036;2023-03-02T07:33:38;8.30;;;6.50;;
35324;SDS011;35135;47.510;19.036;2023-03-02T07:36:05;11.05;;;6.43;;
35324;SDS011;35135;47.510;19.036;2023-03-02T07:38:32;9.65;;;6.90;;
35324;SDS011;35135;47.510;19.036;2023-03-02T07:40:58;10.25;;;6.70;;
35324;SDS011;35135;47.510;19.036;2023-03-02T07:43:24;8.93;;;6.53;;
35324;SDS011;35135;47.510;19.036;2023-03-02T07:45:51;8.63;;;6.28;;
35324;SDS011;35135;47.510;19.036;2023-03-02T07:48:17;8.80;;;6.35;;
35324;SDS011;35135;47.510;19.036;2023-03-02T07:50:44;7.85;;;6.65;;
35324;SDS011;35135;47.510;19.036;2023-03-02T07:53:10;7.60;;;6.32;;
35324;SDS011;35135;47.510;19.036;2023-03-02T07:55:39;9.93;;;6.68;;
35324;SDS011;35135;47.510;19.036;2023-03-02T07:58:05;7.28;;;6.25;;
35324;SDS011;35135;47.510;19.036;2023-03-02T08:00:31;8.93;;;7.30;;
35324;SDS011;35135;47.510;19.036;2023-03-02T08:02:57;10.45;;;7.38;;
35324;SDS011;35135;47.510;19.036;2023-03-02T08:05:22;8.40;;;6.50;;
35324;SDS011;35135;47.510;19.036;2023-03-02T08:07:48;7.63;;;6.18;;
35324;SDS011;35135;47.510;19.036;2023-03-02T08:10:14;7.78;;;5.60;;
35324;SDS011;35135;47.510;19.036;2023-03-02T08:12:39;8.35;;;6.57;;
35324;SDS011;35135;47.510;19.036;2023-03-02T08:15:07;10.85;;;6.22;;
35324;SDS011;35135;47.510;19.036;2023-03-02T08:17:33;8.65;;;6.20;;
35324;SDS011;35135;47.510;19.036;2023-03-02T08:19:59;10.43;;;6.63;;
35324;SDS011;35135;47.510;19.036;2023-03-02T08:22:24;9.25;;;6.90;;
35324;SDS011;35135;47.510;19.036;2023-03-02T08:24:50;6.57;;;5.80;;
35324;SDS011;35135;47.510;19.036;2023-03-02T08:27:15;6.90;;;6.20;;
35324;SDS011;35135;47.510;19.036;2023-03-02T08:29:41;8.05;;;6.32;;
35324;SDS011;35135;47.510;19.036;2023-03-02T08:32:07;7.88;;;6.40;;
35324;SDS011;35135;47.510;19.036;2023-03-02T08:34:32;8.80;;;5.75;;
35324;SDS011;35135;47.510;19.036;2023-03-02T08:36:58;9.52;;;6.50;;
35324;SDS011;35135;47.510;19.036;2023-03-02T08:39:24;7.00;;;6.25;;
35324;SDS011;35135;47.510;19.036;2023-03-02T08:41:54;7.05;;;5.95;;
35324;SDS011;35135;47.510;19.036;2023-03-02T08:44:20;7.30;;;6.43;;
35324;SDS011;35135;47.510;19.036;2023-03-02T08:46:49;8.27;;;6.15;;
35324;SDS011;35135;47.510;19.036;2023-03-02T08:49:15;9.07;;;6.15;;
35324;SDS011;35135;47.510;19.036;2023-03-02T08:51:42;7.95;;;6.10;;
35324;SDS011;35135;47.510;19.036;2023-03-02T08:54:09;8.05;;;5.65;;
35324;SDS011;35135;47.510;19.036;2023-03-02T08:56:36;8.07;;;5.78;;
35324;SDS011;35135;47.510;19.036;2023-03-02T08:59:08;7.00;;;5.70;;
35324;SDS011;35135;47.510;19.036;2023-03-02T09:01:38;8.07;;;5.88;;
35324;SDS011;35135;47.510;19.036;2023-03-02T09:04:05;8.20;;;5.70;;
35324;SDS011;35135;47.510;19.036;2023-03-02T09:06:33;7.55;;;5.57;;
35324;SDS011;35135;47.510;19.036;2023-03-02T09:09:01;6.65;;;5.47;;
35324;SDS011;35135;47.510;19.036;2023-03-02T09:11:27;8.45;;;5.63;;
35324;SDS011;35135;47.510;19.036;2023-03-02T09:13:53;6.82;;;5.40;;
35324;SDS011;35135;47.510;19.036;2023-03-02T09:16:20;7.10;;;5.68;;
35324;SDS011;35135;47.510;19.036;2023-03-02T09:18:48;6.32;;;5.40;;
35324;SDS011;35135;47.510;19.036;2023-03-02T09:21:13;6.55;;;5.40;;
35324;SDS011;35135;47.510;19.036;2023-03-02T09:23:39;5.93;;;5.32;;
35324;SDS011;35135;47.510;19.036;2023-03-02T09:26:05;6.95;;;5.30;;
35324;SDS011;35135;47.510;19.036;2023-03-02T09:28:31;6.10;;;5.50;;
35324;SDS011;35135;47.510;19.036;2023-03-02T09:30:58;8.60;;;5.47;;
35324;SDS011;35135;47.510;19.036;2023-03-02T09:33:27;5.75;;;5.07;;
35324;SDS011;35135;47.510;19.036;2023-03-02T09:35:53;6.50;;;5.47;;
35324;SDS011;35135;47.510;19.036;2023-03-02T09:38:19;6.40;;;4.95;;
35324;SDS011;35135;47.510;19.036;2023-03-02T09:48:33;6.22;;;5.35;;
35324;SDS011;35135;47.510;19.036;2023-03-02T09:53:52;5.93;;;5.33;;
35324;SDS011;35135;47.510;19.036;2023-03-02T09:56:27;5.57;;;4.88;;
35324;SDS011;35135;47.510;19.036;2023-03-02T10:01:44;5.63;;;4.90;;
35324;SDS011;35135;47.510;19.036;2023-03-02T10:04:17;7.55;;;5.72;;
35324;SDS011;35135;47.510;19.036;2023-03-02T10:06:54;5.63;;;5.00;;
35324;SDS011;35135;47.510;19.036;2023-03-02T10:09:33;6.82;;;5.18;;
35324;SDS011;35135;47.510;19.036;2023-03-02T10:12:02;5.88;;;4.93;;
35324;SDS011;35135;47.510;19.036;2023-03-02T10:14:46;6.38;;;5.45;;
35324;SDS011;35135;47.510;19.036;2023-03-02T10:19:59;5.72;;;5.13;;
35324;SDS011;35135;47.510;19.036;2023-03-02T10:22:33;5.30;;;4.20;;
35324;SDS011;35135;47.510;19.036;2023-03-02T10:25:16;6.13;;;5.18;;
35324;SDS011;35135;47.510;19.036;2023-03-02T10:27:50;5.13;;;4.60;;
35324;SDS011;35135;47.510;19.036;2023-03-02T10:30:22;5.10;;;4.60;;
35324;SDS011;35135;47.510;19.036;2023-03-02T10:32:57;6.82;;;5.10;;
35324;SDS011;35135;47.510;19.036;2023-03-02T10:35:26;5.70;;;5.10;;
35324;SDS011;35135;47.510;19.036;2023-03-02T10:38:05;5.88;;;5.28;;
35324;SDS011;35135;47.510;19.036;2023-03-02T10:43:10;5.68;;;5.00;;
35324;SDS011;35135;47.510;19.036;2023-03-02T10:45:56;6.17;;;4.83;;
35324;SDS011;35135;47.510;19.036;2023-03-02T10:48:24;5.35;;;4.47;;
35324;SDS011;35135;47.510;19.036;2023-03-02T10:50:53;5.45;;;4.65;;
35324;SDS011;35135;47.510;19.036;2023-03-02T10:53:20;6.57;;;4.82;;
35324;SDS011;35135;47.510;19.036;2023-03-02T10:55:46;5.15;;;4.65;;
35324;SDS011;35135;47.510;19.036;2023-03-02T10:58:30;5.82;;;4.93;;
35324;SDS011;35135;47.510;19.036;2023-03-02T11:03:31;6.53;;;5.15;;
35324;SDS011;35135;47.510;19.036;2023-03-02T11:05:57;5.88;;;4.85;;
35324;SDS011;35135;47.510;19.036;2023-03-02T11:08:35;5.82;;;5.00;;
35324;SDS011;35135;47.510;19.036;2023-03-02T11:11:02;4.45;;;3.97;;
35324;SDS011;35135;47.510;19.036;2023-03-02T11:13:35;6.13;;;4.68;;
35324;SDS011;35135;47.510;19.036;2023-03-02T11:16:03;5.30;;;4.75;;
35324;SDS011;35135;47.510;19.036;2023-03-02T11:18:51;5.15;;;4.47;;
35324;SDS011;35135;47.510;19.036;2023-03-02T11:29:29;5.28;;;4.13;;
35324;SDS011;35135;47.510;19.036;2023-03-02T11:34:33;5.13;;;4.05;;
35324;SDS011;35135;47.510;19.036;2023-03-02T11:37:20;4.75;;;4.32;;
35324;SDS011;35135;47.510;19.036;2023-03-02T11:42:38;5.15;;;4.65;;
35324;SDS011;35135;47.510;19.036;2023-03-02T11:47:37;5.27;;;4.67;;
35324;SDS011;35135;47.510;19.036;2023-03-02T11:50:11;4.80;;;4.35;;
35324;SDS011;35135;47.510;19.036;2023-03-02T11:52:41;4.60;;;4.13;;
35324;SDS011;35135;47.510;19.036;2023-03-02T11:57:47;5.10;;;4.10;;
35324;SDS011;35135;47.510;19.036;2023-03-02T12:02:59;5.00;;;4.50;;
35324;SDS011;35135;47.510;19.036;2023-03-02T12:05:27;4.70;;;4.20;;
35324;SDS011;35135;47.510;19.036;2023-03-02T12:07:58;4.93;;;4.15;;
35324;SDS011;35135;47.510;19.036;2023-03-02T12:10:31;5.65;;;4.70;;
35324;SDS011;35135;47.510;19.036;2023-03-02T12:15:47;4.50;;;4.10;;
35324;SDS011;35135;47.510;19.036;2023-03-02T12:20:45;5.35;;;4.38;;
35324;SDS011;35135;47.510;19.036;2023-03-02T12:23:26;5.05;;;4.47;;
35324;SDS011;35135;47.510;19.036;2023-03-02T12:28:33;4.70;;;4.13;;
35324;SDS011;35135;47.510;19.036;2023-03-02T12:31:02;4.75;;;4.20;;
35324;SDS011;35135;47.510;19.036;2023-03-02T12:33:28;5.53;;;4.32;;
35324;SDS011;35135;47.510;19.036;2023-03-02T12:36:09;5.88;;;4.35;;
35324;SDS011;35135;47.510;19.036;2023-03-02T12:38:37;5.10;;;4.60;;
35324;SDS011;35135;47.510;19.036;2023-03-02T12:41:24;5.70;;;3.95;;
35324;SDS011;35135;47.510;19.036;2023-03-02T12:44:25;5.15;;;4.13;;
35324;SDS011;35135;47.510;19.036;2023-03-02T12:47:05;4.30;;;3.60;;
35324;SDS011;35135;47.510;19.036;2023-03-02T12:49:56;5.55;;;4.40;;
35324;SDS011;35135;47.510;19.036;2023-03-02T12:57:36;4.78;;;4.28;;
35324;SDS011;35135;47.510;19.036;2023-03-02T13:00:03;5.50;;;4.63;;
35324;SDS011;35135;47.510;19.036;2023-03-02T13:02:31;5.82;;;4.47;;
35324;SDS011;35135;47.510;19.036;2023-03-02T13:04:59;6.40;;;4.20;;
35324;SDS011;35135;47.510;19.036;2023-03-02T13:07:37;7.40;;;4.00;;
35324;SDS011;35135;47.510;19.036;2023-03-02T13:10:18;7.25;;;4.32;;
35324;SDS011;35135;47.510;19.036;2023-03-02T13:12:47;7.90;;;4.28;;
35324;SDS011;35135;47.510;19.036;2023-03-02T13:15:14;7.45;;;4.20;;
35324;SDS011;35135;47.510;19.036;2023-03-02T13:17:42;4.60;;;3.80;;
35324;SDS011;35135;47.510;19.036;2023-03-02T13:20:11;7.85;;;3.80;;
35324;SDS011;35135;47.510;19.036;2023-03-02T13:22:39;5.35;;;4.13;;
35324;SDS011;35135;47.510;19.036;2023-03-02T13:25:05;7.65;;;4.30;;
35324;SDS011;35135;47.510;19.036;2023-03-02T13:27:32;4.10;;;3.67;;
35324;SDS011;35135;47.510;19.036;2023-03-02T13:30:08;5.80;;;3.90;;
35324;SDS011;35135;47.510;19.036;2023-03-02T13:32:56;4.97;;;3.50;;
35324;SDS011;35135;47.510;19.036;2023-03-02T13:35:26;6.68;;;3.97;;
35324;SDS011;35135;47.510;19.036;2023-03-02T13:37:59;4.22;;;3.80;;
35324;SDS011;35135;47.510;19.036;2023-03-02T13:40:31;9.73;;;4.05;;
35324;SDS011;35135;47.510;19.036;2023-03-02T13:43:02;8.27;;;4.13;;
35324;SDS011;35135;47.510;19.036;2023-03-02T13:45:32;14.40;;;4.60;;
35324;SDS011;35135;47.510;19.036;2023-03-02T13:47:58;7.93;;;3.80;;
35324;SDS011;35135;47.510;19.036;2023-03-02T13:50:35;5.82;;;3.75;;
35324;SDS011;35135;47.510;19.036;2023-03-02T13:53:02;5.03;;;3.58;;
35324;SDS011;35135;47.510;19.036;2023-03-02T13:55:31;5.13;;;3.60;;
35324;SDS011;35135;47.510;19.036;2023-03-02T13:57:57;7.18;;;3.92;;
35324;SDS011;35135;47.510;19.036;2023-03-02T14:00:32;7.00;;;3.63;;
35324;SDS011;35135;47.510;19.036;2023-03-02T14:02:59;6.22;;;4.30;;
35324;SDS011;35135;47.510;19.036;2023-03-02T14:05:25;9.07;;;4.25;;
35324;SDS011;35135;47.510;19.036;2023-03-02T14:07:56;6.53;;;3.90;;
35324;SDS011;35135;47.510;19.036;2023-03-02T14:10:23;5.15;;;3.78;;
35324;SDS011;35135;47.510;19.036;2023-03-02T14:15:25;4.63;;;3.53;;
35324;SDS011;35135;47.510;19.036;2023-03-02T14:17:50;9.00;;;4.05;;
35324;SDS011;35135;47.510;19.036;2023-03-02T14:20:17;8.18;;;3.60;;
35324;SDS011;35135;47.510;19.036;2023-03-02T14:22:44;5.28;;;3.88;;
35324;SDS011;35135;47.510;19.036;2023-03-02T14:25:11;7.50;;;3.90;;
35324;SDS011;35135;47.510;19.036;2023-03-02T14:27:37;3.85;;;3.45;;
35324;SDS011;35135;47.510;19.036;2023-03-02T14:30:11;5.57;;;3.75;;
35324;SDS011;35135;47.510;19.036;2023-03-02T14:32:43;6.60;;;3.95;;
35324;SDS011;35135;47.510;19.036;2023-03-02T14:35:12;5.72;;;3.70;;
35324;SDS011;35135;47.510;19.036;2023-03-02T14:37:40;8.50;;;4.75;;
35324;SDS011;35135;47.510;19.036;2023-03-02T14:40:29;8.95;;;4.78;;
35324;SDS011;35135;47.510;19.036;2023-03-02T14:42:54;4.22;;;3.60;;
35324;SDS011;35135;47.510;19.036;2023-03-02T14:45:20;7.70;;;4.40;;
35324;SDS011;35135;47.510;19.036;2023-03-02T14:47:47;6.75;;;4.38;;
35324;SDS011;35135;47.510;19.036;2023-03-02T14:50:12;6.75;;;4.50;;
35324;SDS011;35135;47.510;19.036;2023-03-02T14:52:41;13.35;;;4.80;;
35324;SDS011;35135;47.510;19.036;2023-03-02T14:55:16;7.40;;;4.53;;
35324;SDS011;35135;47.510;19.036;2023-03-02T14:57:50;7.03;;;4.50;;
35324;SDS011;35135;47.510;19.036;2023-03-02T15:00:19;5.38;;;4.28;;
35324;SDS011;35135;47.510;19.036;2023-03-02T15:02:45;8.65;;;4.50;;
35324;SDS011;35135;47.510;19.036;2023-03-02T15:05:10;7.10;;;4.90;;
35324;SDS011;35135;47.510;19.036;2023-03-02T15:07:36;7.07;;;4.70;;
35324;SDS011;35135;47.510;19.036;2023-03-02T15:10:03;7.07;;;4.78;;
35324;SDS011;35135;47.510;19.036;2023-03-02T15:12:30;5.50;;;4.82;;
35324;SDS011;35135;47.510;19.036;2023-03-02T15:14:55;6.28;;;4.45;;
35324;SDS011;35135;47.510;19.036;2023-03-02T15:17:21;5.85;;;4.80;;
35324;SDS011;35135;47.510;19.036;2023-03-02T15:19:47;6.25;;;5.03;;
35324;SDS011;35135;47.510;19.036;2023-03-02T15:22:12;5.85;;;4.35;;
35324;SDS011;35135;47.510;19.036;2023-03-02T15:24:38;6.43;;;4.75;;
35324;SDS011;35135;47.510;19.036;2023-03-02T15:27:04;10.82;;;4.70;;
35324;SDS011;35135;47.510;19.036;2023-03-02T15:29:29;5.50;;;3.85;;
35324;SDS011;35135;47.510;19.036;2023-03-02T15:31:55;6.75;;;4.50;;
35324;SDS011;35135;47.510;19.036;2023-03-02T15:34:21;8.88;;;4.97;;
35324;SDS011;35135;47.510;19.036;2023-03-02T15:36:46;8.48;;;4.90;;
35324;SDS011;35135;47.510;19.036;2023-03-02T15:39:12;9.52;;;4.20;;
35324;SDS011;35135;47.510;19.036;2023-03-02T15:41:39;7.82;;;4.50;;
35324;SDS011;35135;47.510;19.036;2023-03-02T15:44:06;6.25;;;4.28;;
35324;SDS011;35135;47.510;19.036;2023-03-02T15:46:32;5.72;;;4.43;;
35324;SDS011;35135;47.510;19.036;2023-03-02T15:48:58;9.57;;;4.25;;
35324;SDS011;35135;47.510;19.036;2023-03-02T15:51:23;8.52;;;3.95;;